Greenspond, Canada
Current Conditions -  °F | °C
As of 5:00 PM on Tuesday 21 Oct 2014 (Local Time) from CYQX Reporting Station
Broken Clouds Broken Clouds  
Wind Chill: 44°   Ceiling: 3800
Heat Index: 48°   Visibility: 20mi
Dew Point: 37°   Wind: 9mph
Humidity: 66%   Direction: 270°W
Pressure: 30.05"   Gusts: NA
Location:  49.05°N, 53.58°W
Report Text: CYQX 211900Z 27008KT 20SM BKN038 09/03 A3005 RMK SC7 SLP182
Loading
Personal Weather Stations






























Interactive Weather Map
Tropical Storm Tracking
New forecast layout! Learn more

10-Day Weather Forecast

Advertisements
Track Severe Weather on mobile